createdAt,value
2017-09-24T00:01:45.480Z,14.25
2017-09-24T00:04:13.931Z,14.22
2017-09-24T00:06:43.129Z,14.24
2017-09-24T00:09:12.352Z,14.26
2017-09-24T00:11:40.839Z,14.24
2017-09-24T00:14:09.300Z,14.23
2017-09-24T00:16:38.499Z,14.17
2017-09-24T00:19:07.714Z,14.19
2017-09-24T00:21:36.203Z,14.13
2017-09-24T00:24:04.681Z,14.15
2017-09-24T00:26:33.112Z,14.14
2017-09-24T00:29:01.540Z,14.17
2017-09-24T00:31:29.988Z,14.11
2017-09-24T00:33:58.428Z,14.08
2017-09-24T00:36:26.884Z,14.07
2017-09-24T00:38:55.320Z,14.08
2017-09-24T00:41:23.771Z,14.05
2017-09-24T00:43:52.236Z,14.11
2017-09-24T00:46:20.683Z,14.11
2017-09-24T00:48:49.880Z,14.08
2017-09-24T00:51:19.103Z,14.12
2017-09-24T00:53:47.540Z,14.08
2017-09-24T00:56:16.075Z,14.11
2017-09-24T00:58:44.513Z,14.11
2017-09-24T01:01:12.963Z,14.14
2017-09-24T01:03:41.396Z,14.12
2017-09-24T01:06:10.635Z,14.10
2017-09-24T01:08:39.068Z,14.12
2017-09-24T01:11:08.292Z,14.10
2017-09-24T01:13:36.784Z,14.15
2017-09-24T01:16:05.263Z,14.18
2017-09-24T01:18:33.696Z,14.18
2017-09-24T01:21:02.141Z,14.20
2017-09-24T01:23:30.618Z,14.21
2017-09-24T01:25:59.096Z,14.24
2017-09-24T01:28:29.896Z,14.23
2017-09-24T01:30:59.119Z,14.29
2017-09-24T01:33:27.548Z,14.30
2017-09-24T01:35:55.999Z,14.27
2017-09-24T01:38:24.432Z,14.32
2017-09-24T01:40:53.677Z,14.33
2017-09-24T01:43:22.115Z,14.32
2017-09-24T01:45:50.631Z,14.37
2017-09-24T01:48:19.083Z,14.34
2017-09-24T01:50:48.316Z,14.39
2017-09-24T01:53:16.780Z,14.40
2017-09-24T01:55:45.980Z,14.44
2017-09-24T01:58:15.302Z,14.40
2017-09-24T02:00:43.752Z,14.43
2017-09-24T02:03:13.079Z,14.46
2017-09-24T02:05:41.511Z,14.50
2017-09-24T02:08:09.968Z,14.51
2017-09-24T02:10:38.409Z,14.53
2017-09-24T02:13:06.911Z,14.52
2017-09-24T02:15:35.392Z,14.50
2017-09-24T02:18:03.852Z,14.53
2017-09-24T02:20:33.060Z,14.55
2017-09-24T02:23:01.516Z,14.54
2017-09-24T02:25:30.721Z,14.56
2017-09-24T02:27:59.944Z,14.63
2017-09-24T02:30:28.384Z,14.59
2017-09-24T02:32:56.853Z,14.64
2017-09-24T02:35:25.292Z,14.64
2017-09-24T02:37:53.773Z,14.64
2017-09-24T02:40:22.255Z,14.67
2017-09-24T02:42:50.692Z,14.70
2017-09-24T02:45:19.153Z,14.72
2017-09-24T02:47:47.604Z,14.75
2017-09-24T02:50:16.060Z,14.78
2017-09-24T02:52:45.259Z,14.80
2017-09-24T02:55:14.479Z,14.77
2017-09-24T02:57:42.916Z,14.78
2017-09-24T03:00:11.443Z,14.82
2017-09-24T03:02:39.872Z,14.84
2017-09-24T03:05:08.327Z,14.88
2017-09-24T03:07:36.865Z,14.91
2017-09-24T03:10:06.196Z,14.92
2017-09-24T03:12:34.639Z,14.93
2017-09-24T03:15:03.970Z,14.93
2017-09-24T03:17:32.399Z,14.89
2017-09-24T03:20:00.944Z,14.92
2017-09-24T03:22:29.380Z,14.91
2017-09-24T03:24:57.911Z,14.96
2017-09-24T03:27:26.352Z,14.95
2017-09-24T03:29:55.585Z,14.99
2017-09-24T03:32:24.029Z,15.01
2017-09-24T03:34:53.260Z,14.98
2017-09-24T03:37:21.742Z,14.98
2017-09-24T03:39:50.238Z,15.00
2017-09-24T03:42:18.680Z,15.01
2017-09-24T03:44:48.017Z,15.03
2017-09-24T03:47:16.456Z,15.00
2017-09-24T03:49:44.906Z,15.01
2017-09-24T03:52:13.360Z,15.08
2017-09-24T03:54:41.844Z,15.05
2017-09-24T03:57:10.284Z,15.11
2017-09-24T03:59:39.502Z,15.15
2017-09-24T04:02:08.726Z,15.08
2017-09-24T04:04:37.199Z,15.09
2017-09-24T04:07:05.636Z,15.10
2017-09-24T04:09:34.072Z,15.12
2017-09-24T04:12:02.532Z,15.12
2017-09-24T04:14:30.969Z,15.13
2017-09-24T04:16:59.513Z,15.15
2017-09-24T04:19:27.987Z,15.15
2017-09-24T04:21:56.471Z,15.16
2017-09-24T04:24:24.951Z,15.19
2017-09-24T04:26:53.408Z,15.22
2017-09-24T04:29:22.637Z,15.23
2017-09-24T04:31:51.097Z,15.23
2017-09-24T04:34:20.320Z,15.24
2017-09-24T04:36:48.780Z,15.23
2017-09-24T04:39:17.989Z,15.24
2017-09-24T04:41:46.475Z,15.25
2017-09-24T04:44:14.912Z,15.23
2017-09-24T04:46:43.373Z,15.25
2017-09-24T04:49:11.808Z,15.25
2017-09-24T04:51:41.030Z,15.24
2017-09-24T04:54:09.473Z,15.23
2017-09-24T04:56:38.696Z,15.23
2017-09-24T04:59:07.179Z,15.27
2017-09-24T05:01:35.635Z,15.26
2017-09-24T05:04:04.840Z,15.27
2017-09-24T05:06:34.068Z,15.29
2017-09-24T05:09:02.504Z,15.29
2017-09-24T05:11:30.964Z,15.31
2017-09-24T05:13:59.513Z,15.33
2017-09-24T05:16:27.973Z,15.34
2017-09-24T05:18:57.172Z,15.33
2017-09-24T05:21:26.396Z,15.35
2017-09-24T05:23:54.828Z,15.34
2017-09-24T05:26:23.358Z,15.34
2017-09-24T05:28:51.815Z,15.34
2017-09-24T05:31:21.031Z,15.34
2017-09-24T05:33:49.488Z,15.39
2017-09-24T05:36:18.683Z,15.40
2017-09-24T05:38:48.020Z,15.39
2017-09-24T05:41:16.494Z,15.35
2017-09-24T05:43:44.944Z,15.36
2017-09-24T05:46:14.189Z,15.39
2017-09-24T05:48:42.644Z,15.35
2017-09-24T05:51:11.838Z,15.40
2017-09-24T05:53:41.169Z,15.41
2017-09-24T05:56:09.639Z,15.46
2017-09-24T05:58:38.096Z,15.47
2017-09-24T06:01:07.303Z,15.49
2017-09-24T06:03:36.623Z,15.47
2017-09-24T06:06:05.112Z,15.61
2017-09-24T06:08:33.593Z,15.63
2017-09-24T06:11:02.045Z,15.65
2017-09-24T06:13:31.249Z,15.64
2017-09-24T06:16:00.576Z,15.55
2017-09-24T06:18:29.027Z,15.57
2017-09-24T06:20:58.248Z,15.54
2017-09-24T06:23:26.688Z,15.57
2017-09-24T06:25:55.225Z,15.55
2017-09-24T06:28:23.663Z,15.59
2017-09-24T06:30:52.995Z,15.62
2017-09-24T06:33:21.484Z,15.66
2017-09-24T06:35:49.982Z,15.70
2017-09-24T06:38:18.421Z,15.73
2017-09-24T06:40:47.649Z,15.73
2017-09-24T06:43:16.096Z,15.66
2017-09-24T06:45:45.428Z,15.68
2017-09-24T06:48:13.856Z,15.58
2017-09-24T06:50:43.075Z,15.52
2017-09-24T06:53:12.275Z,15.54
2017-09-24T06:55:41.492Z,15.59
2017-09-24T06:58:09.928Z,15.62
2017-09-24T07:00:38.384Z,15.63
2017-09-24T07:03:06.816Z,15.66
2017-09-24T07:05:36.035Z,15.67
2017-09-24T07:08:04.472Z,15.67
2017-09-24T07:10:32.949Z,15.68
2017-09-24T07:13:01.379Z,15.73
2017-09-24T07:15:29.808Z,15.73
2017-09-24T07:17:58.267Z,15.77
2017-09-24T07:20:26.752Z,15.83
2017-09-24T07:22:55.240Z,15.86
2017-09-24T07:25:23.673Z,15.87
2017-09-24T07:27:53.004Z,15.84
2017-09-24T07:30:21.442Z,15.83
2017-09-24T07:32:50.676Z,15.80
2017-09-24T07:35:19.116Z,15.81
2017-09-24T07:37:47.567Z,15.81
2017-09-24T07:40:15.994Z,15.82
2017-09-24T07:42:45.324Z,15.85
2017-09-24T07:45:13.808Z,15.91
2017-09-24T07:47:42.265Z,15.86
2017-09-24T07:50:11.458Z,15.95
2017-09-24T07:52:40.675Z,15.88
2017-09-24T07:55:09.167Z,15.84
2017-09-24T07:57:37.625Z,15.82
2017-09-24T08:00:06.819Z,15.78
2017-09-24T08:02:36.152Z,15.75
2017-09-24T08:05:04.586Z,15.74
2017-09-24T08:07:33.015Z,15.68
2017-09-24T08:10:01.492Z,15.76
2017-09-24T08:12:29.928Z,15.73
2017-09-24T08:14:58.388Z,15.67
2017-09-24T08:17:26.845Z,15.73
2017-09-24T08:19:55.296Z,15.83
2017-09-24T08:22:24.491Z,15.83
2017-09-24T08:24:53.824Z,15.95
2017-09-24T08:27:22.263Z,15.96
2017-09-24T08:29:50.720Z,15.99
2017-09-24T08:32:19.159Z,15.97
2017-09-24T08:34:47.655Z,16.07
2017-09-24T08:37:16.131Z,16.02
2017-09-24T08:39:44.579Z,16.21
2017-09-24T08:42:13.817Z,16.23
2017-09-24T08:44:42.290Z,16.41
2017-09-24T08:47:10.776Z,16.33
2017-09-24T08:49:39.251Z,16.50
2017-09-24T08:52:07.675Z,16.56
2017-09-24T08:54:36.131Z,16.45
2017-09-24T08:57:04.608Z,16.49
2017-09-24T08:59:33.089Z,16.46
2017-09-24T09:02:01.528Z,16.44
2017-09-24T09:04:30.770Z,16.33
2017-09-24T09:06:59.198Z,16.54
2017-09-24T09:09:27.633Z,16.51
2017-09-24T09:11:56.097Z,16.65
2017-09-24T09:14:24.587Z,16.61
2017-09-24T09:16:53.044Z,16.62
2017-09-24T09:19:22.271Z,16.65
2017-09-24T09:21:50.711Z,16.77
2017-09-24T09:24:19.148Z,16.82
2017-09-24T09:26:47.606Z,16.85
2017-09-24T09:29:16.108Z,16.97
2017-09-24T09:31:44.554Z,17.12
2017-09-24T09:34:31.597Z,17.12
2017-09-24T09:37:00.052Z,17.52
2017-09-24T09:39:29.243Z,17.68
2017-09-24T09:41:58.586Z,17.41
2017-09-24T09:44:44.810Z,17.37
2017-09-24T09:47:27.104Z,17.31
2017-09-24T09:49:55.532Z,17.43
2017-09-24T09:52:24.867Z,17.48
2017-09-24T09:54:53.317Z,17.53
2017-09-24T09:57:22.645Z,17.72
2017-09-24T09:59:51.084Z,17.80
2017-09-24T10:02:19.609Z,17.77
2017-09-24T10:04:48.101Z,17.76
2017-09-24T10:07:34.336Z,17.59
2017-09-24T10:10:18.345Z,17.71
2017-09-24T10:12:46.809Z,17.54
2017-09-24T10:15:15.238Z,17.62
2017-09-24T10:17:43.689Z,17.67
2017-09-24T10:20:12.115Z,17.78
2017-09-24T10:22:40.592Z,17.78
2017-09-24T10:25:09.033Z,17.71
2017-09-24T10:27:37.472Z,17.78
2017-09-24T10:30:24.566Z,18.04
2017-09-24T10:32:53.044Z,18.01
2017-09-24T10:35:21.480Z,18.18
2017-09-24T10:37:49.908Z,17.97
2017-09-24T10:40:18.360Z,18.27
2017-09-24T10:42:46.796Z,18.48
2017-09-24T10:45:16.132Z,18.76
2017-09-24T10:47:44.627Z,18.77
2017-09-24T10:50:13.084Z,18.90
2017-09-24T10:52:41.571Z,18.64
2017-09-24T10:55:10.028Z,18.67
2017-09-24T10:57:39.236Z,18.77
2017-09-24T11:00:08.560Z,18.80
2017-09-24T11:02:36.987Z,18.85
2017-09-24T11:05:05.444Z,18.63
2017-09-24T11:07:33.909Z,18.62
2017-09-24T11:10:02.384Z,18.64
2017-09-24T11:12:30.820Z,18.73
2017-09-24T11:14:59.272Z,18.77
2017-09-24T11:17:27.705Z,18.90
2017-09-24T11:19:57.027Z,18.71
2017-09-24T11:22:25.521Z,18.71
2017-09-24T11:24:53.985Z,18.91
2017-09-24T11:27:22.482Z,19.20
2017-09-24T11:29:50.960Z,18.99
2017-09-24T11:32:19.400Z,18.85
2017-09-24T11:34:48.633Z,18.72
2017-09-24T11:37:17.068Z,18.73
2017-09-24T11:39:45.604Z,18.53
2017-09-24T11:42:14.087Z,18.57
2017-09-24T11:44:42.544Z,18.55
2017-09-24T11:47:11.743Z,18.62
2017-09-24T11:49:40.973Z,18.98
2017-09-24T11:52:09.407Z,19.20
2017-09-24T11:54:38.628Z,19.21
2017-09-24T11:57:07.824Z,19.09
2017-09-24T11:59:37.143Z,19.26
2017-09-24T12:02:05.623Z,18.94
2017-09-24T12:04:34.108Z,18.73
2017-09-24T12:07:02.536Z,18.69
2017-09-24T12:09:30.992Z,18.61
2017-09-24T12:11:59.431Z,18.66
2017-09-24T12:14:28.659Z,18.79
2017-09-24T12:16:57.130Z,18.88
2017-09-24T12:19:25.559Z,19.19
2017-09-24T12:21:54.100Z,19.30
2017-09-24T12:24:22.564Z,19.38
2017-09-24T12:26:51.055Z,19.66
2017-09-24T12:29:19.483Z,19.86
2017-09-24T12:31:47.927Z,19.98
2017-09-24T12:34:16.440Z,20.22
2017-09-24T12:36:44.993Z,20.27
2017-09-24T12:39:13.479Z,20.28
2017-09-24T12:41:41.945Z,20.36
2017-09-24T12:44:10.432Z,19.99
2017-09-24T12:46:38.879Z,19.84
2017-09-24T12:49:08.116Z,19.78
2017-09-24T12:51:36.572Z,19.64
2017-09-24T12:54:05.763Z,19.68
2017-09-24T12:56:34.985Z,19.73
2017-09-24T12:59:03.415Z,19.87
2017-09-24T13:01:31.872Z,20.06
2017-09-24T13:04:00.445Z,20.22
2017-09-24T13:06:28.905Z,20.36
2017-09-24T13:08:58.129Z,20.39
2017-09-24T13:11:26.617Z,20.40
2017-09-24T13:13:55.055Z,20.34
2017-09-24T13:16:24.246Z,20.47
2017-09-24T13:18:52.708Z,20.41
2017-09-24T13:21:21.139Z,20.33
2017-09-24T13:23:49.781Z,20.51
2017-09-24T13:26:18.224Z,20.45
2017-09-24T13:28:46.683Z,20.23
2017-09-24T13:31:15.110Z,20.11
2017-09-24T13:33:43.564Z,19.94
2017-09-24T13:36:12.040Z,19.88
2017-09-24T13:38:40.496Z,19.83
2017-09-24T13:41:09.716Z,19.77
2017-09-24T13:43:38.199Z,19.73
2017-09-24T13:46:06.688Z,19.58
2017-09-24T13:48:35.157Z,19.64
2017-09-24T13:51:03.596Z,19.71
2017-09-24T13:53:32.052Z,19.77
2017-09-24T13:56:00.488Z,19.80
2017-09-24T13:58:29.712Z,19.75
2017-09-24T14:00:58.205Z,19.75
2017-09-24T14:03:26.694Z,19.68
2017-09-24T14:05:55.124Z,19.68
2017-09-24T14:08:24.436Z,19.60
2017-09-24T14:10:53.628Z,19.67
2017-09-24T14:13:22.867Z,19.63
2017-09-24T14:15:51.295Z,19.59
2017-09-24T14:18:21.355Z,19.56
2017-09-24T14:20:49.818Z,19.71
2017-09-24T14:23:19.101Z,19.69
2017-09-24T14:25:48.305Z,19.62
2017-09-24T14:28:17.636Z,19.69
2017-09-24T14:30:46.072Z,19.58
2017-09-24T14:33:14.517Z,19.63
2017-09-24T14:35:42.968Z,19.67
2017-09-24T14:38:11.460Z,19.53
2017-09-24T14:40:39.921Z,19.46
2017-09-24T14:43:09.150Z,19.42
2017-09-24T14:45:37.603Z,19.46
2017-09-24T14:48:06.794Z,19.38
2017-09-24T14:50:36.020Z,19.25
2017-09-24T14:53:04.459Z,19.13
2017-09-24T14:55:33.692Z,19.07
2017-09-24T14:58:02.123Z,18.98
2017-09-24T15:00:30.666Z,18.94
2017-09-24T15:02:59.094Z,18.90
2017-09-24T15:05:27.548Z,18.98
2017-09-24T15:07:55.985Z,18.94
2017-09-24T15:10:25.208Z,18.88
2017-09-24T15:12:53.689Z,18.93
2017-09-24T15:15:22.138Z,18.82
2017-09-24T15:17:51.464Z,18.87
2017-09-24T15:20:19.912Z,18.79
2017-09-24T15:22:49.114Z,18.82
2017-09-24T15:25:18.344Z,18.77
2017-09-24T15:27:46.837Z,18.79
2017-09-24T15:30:15.287Z,18.82
2017-09-24T15:32:44.494Z,18.86
2017-09-24T15:35:13.719Z,18.83
2017-09-24T15:37:42.314Z,18.74
2017-09-24T15:40:10.797Z,18.66
2017-09-24T15:42:39.256Z,18.75
2017-09-24T15:45:07.689Z,18.72
2017-09-24T15:47:36.144Z,18.67
2017-09-24T15:50:04.576Z,18.64
2017-09-24T15:52:33.792Z,18.57
2017-09-24T15:55:02.322Z,18.52
2017-09-24T15:57:30.876Z,18.44
2017-09-24T15:59:59.314Z,18.41
2017-09-24T16:02:27.840Z,18.42
2017-09-24T16:04:56.326Z,18.37
2017-09-24T16:07:24.789Z,18.36
2017-09-24T16:09:53.279Z,18.42
2017-09-24T16:12:21.732Z,18.34
2017-09-24T16:14:50.970Z,18.32
2017-09-24T16:17:19.428Z,18.24
2017-09-24T16:19:47.869Z,18.19
2017-09-24T16:22:17.432Z,18.20
2017-09-24T16:24:45.864Z,18.23
2017-09-24T16:27:14.404Z,18.15
2017-09-24T16:29:42.843Z,18.14
2017-09-24T16:32:12.053Z,18.09
2017-09-24T16:34:41.251Z,18.01
2017-09-24T16:37:10.579Z,18.00
2017-09-24T16:39:39.012Z,17.93
2017-09-24T16:42:07.544Z,17.90
2017-09-24T16:44:36.019Z,17.83
2017-09-24T16:47:04.496Z,17.76
2017-09-24T16:49:32.987Z,17.72
2017-09-24T16:52:01.427Z,17.62
2017-09-24T16:54:29.875Z,17.54
2017-09-24T16:56:58.336Z,17.48
2017-09-24T16:59:26.804Z,17.45
2017-09-24T17:01:55.232Z,17.40
2017-09-24T17:04:23.683Z,17.36
2017-09-24T17:06:52.124Z,17.27
2017-09-24T17:09:21.343Z,17.23
2017-09-24T17:11:49.841Z,17.16
2017-09-24T17:14:18.290Z,17.16
2017-09-24T17:16:47.529Z,17.09
2017-09-24T17:19:15.988Z,17.06
2017-09-24T17:21:44.432Z,17.03
2017-09-24T17:24:12.888Z,16.94
2017-09-24T17:26:41.315Z,16.89
2017-09-24T17:29:10.536Z,16.82
2017-09-24T17:31:38.972Z,16.81
2017-09-24T17:34:07.444Z,16.83
2017-09-24T17:36:35.880Z,16.76
2017-09-24T17:39:04.331Z,16.75
2017-09-24T17:41:33.536Z,16.72
2017-09-24T17:44:02.871Z,16.70
2017-09-24T17:46:31.346Z,16.63
2017-09-24T17:48:59.799Z,16.61
2017-09-24T17:51:28.995Z,16.56
2017-09-24T17:53:58.221Z,16.53
2017-09-24T17:56:26.725Z,16.48
2017-09-24T17:58:55.188Z,16.48
2017-09-24T18:01:23.671Z,16.47
2017-09-24T18:03:52.839Z,16.37
2017-09-24T18:06:22.044Z,16.33
2017-09-24T18:08:51.289Z,16.27
2017-09-24T18:11:19.730Z,16.25
2017-09-24T18:13:48.927Z,16.17
2017-09-24T18:16:18.140Z,16.12
2017-09-24T18:18:46.636Z,16.13
2017-09-24T18:21:15.096Z,16.10
2017-09-24T18:23:44.311Z,16.07
2017-09-24T18:26:12.759Z,16.01
2017-09-24T18:28:41.296Z,15.99
2017-09-24T18:31:09.752Z,15.98
2017-09-24T18:33:38.245Z,15.90
2017-09-24T18:36:06.701Z,15.88
2017-09-24T18:38:35.904Z,15.83
2017-09-24T18:41:05.124Z,15.80
2017-09-24T18:43:33.564Z,15.75
2017-09-24T18:46:02.792Z,15.72
2017-09-24T18:48:31.219Z,15.71
2017-09-24T18:50:59.775Z,15.68
2017-09-24T18:53:28.247Z,15.66
2017-09-24T18:55:56.738Z,15.64
2017-09-24T18:58:25.181Z,15.63
2017-09-24T19:00:54.516Z,15.60
2017-09-24T19:03:23.004Z,15.55
2017-09-24T19:05:51.518Z,15.54
2017-09-24T19:08:19.951Z,15.55
2017-09-24T19:10:48.440Z,15.53
2017-09-24T19:13:16.875Z,15.52
2017-09-24T19:15:45.351Z,15.52
2017-09-24T19:18:13.783Z,15.50
2017-09-24T19:20:42.217Z,15.49
2017-09-24T19:23:10.742Z,15.47
2017-09-24T19:25:39.227Z,15.47
2017-09-24T19:28:07.716Z,15.48
2017-09-24T19:30:36.156Z,15.46
2017-09-24T19:33:05.402Z,15.42
2017-09-24T19:35:33.840Z,15.39
2017-09-24T19:38:03.083Z,15.37
2017-09-24T19:40:31.520Z,15.34
2017-09-24T19:43:00.871Z,15.30
2017-09-24T19:45:29.304Z,15.28
2017-09-24T19:47:58.518Z,15.25
2017-09-24T19:50:27.859Z,15.21
2017-09-24T19:52:56.508Z,15.22
2017-09-24T19:55:25.716Z,15.22
2017-09-24T19:57:54.209Z,15.22
2017-09-24T20:00:22.644Z,15.19
2017-09-24T20:02:51.180Z,15.19
2017-09-24T20:05:19.619Z,15.13
2017-09-24T20:07:48.855Z,15.13
2017-09-24T20:10:17.342Z,15.09
2017-09-24T20:12:45.814Z,15.08
2017-09-24T20:15:14.263Z,15.07
2017-09-24T20:17:43.500Z,15.09
2017-09-24T20:20:11.980Z,15.07
2017-09-24T20:22:40.464Z,15.09
2017-09-24T20:25:08.943Z,15.09
2017-09-24T20:27:37.384Z,15.09
2017-09-24T20:30:06.723Z,15.12
2017-09-24T20:32:35.152Z,15.09
2017-09-24T20:35:03.611Z,15.04
2017-09-24T20:37:32.043Z,15.00
2017-09-24T20:40:01.378Z,15.02
2017-09-24T20:42:29.867Z,14.99
2017-09-24T20:44:58.331Z,15.01
2017-09-24T20:47:26.760Z,15.01
2017-09-24T20:49:55.232Z,15.08
2017-09-24T20:52:23.667Z,15.10
2017-09-24T20:54:52.104Z,15.16
2017-09-24T20:57:20.559Z,15.14
2017-09-24T20:59:48.996Z,15.16
2017-09-24T21:02:18.325Z,15.19
2017-09-24T21:04:46.803Z,15.23
2017-09-24T21:07:15.252Z,15.19
2017-09-24T21:09:44.444Z,15.17
2017-09-24T21:12:12.891Z,15.20
2017-09-24T21:14:41.350Z,15.24
2017-09-24T21:17:09.838Z,15.25
2017-09-24T21:19:38.280Z,15.23
2017-09-24T21:22:07.612Z,15.27
2017-09-24T21:24:36.041Z,15.29
2017-09-24T21:27:04.504Z,15.29
2017-09-24T21:29:32.940Z,15.32
2017-09-24T21:32:01.396Z,15.32
2017-09-24T21:34:29.831Z,15.35
2017-09-24T21:36:58.304Z,15.37
2017-09-24T21:39:26.748Z,15.41
2017-09-24T21:41:55.968Z,15.35
2017-09-24T21:44:24.404Z,15.41
2017-09-24T21:46:52.948Z,15.44
2017-09-24T21:49:21.388Z,15.50
2017-09-24T21:51:50.608Z,15.49
2017-09-24T21:54:19.803Z,15.49
2017-09-24T21:56:49.049Z,15.50
2017-09-24T21:59:17.504Z,15.53
2017-09-24T22:01:45.983Z,15.52
2017-09-24T22:04:14.431Z,15.60
2017-09-24T22:06:42.861Z,15.60
2017-09-24T22:09:11.328Z,15.58
2017-09-24T22:11:39.816Z,15.60
2017-09-24T22:14:08.302Z,15.60
2017-09-24T22:16:36.780Z,15.60
2017-09-24T22:19:05.255Z,15.63
2017-09-24T22:21:33.693Z,15.65
2017-09-24T22:24:02.221Z,15.65
2017-09-24T22:26:30.660Z,15.68
2017-09-24T22:28:59.117Z,15.69
2017-09-24T22:31:27.556Z,15.68
2017-09-24T22:33:56.016Z,15.65
2017-09-24T22:36:25.220Z,15.67
2017-09-24T22:38:54.543Z,15.68
2017-09-24T22:41:22.976Z,15.68
2017-09-24T22:43:51.440Z,15.69
2017-09-24T22:46:19.897Z,15.71
2017-09-24T22:48:48.474Z,15.64
2017-09-24T22:51:16.920Z,15.67
2017-09-24T22:53:46.468Z,15.67
2017-09-24T22:56:14.924Z,15.65
2017-09-24T22:58:44.125Z,15.65
2017-09-24T23:01:13.435Z,15.66
2017-09-24T23:03:42.045Z,15.65
2017-09-24T23:06:10.514Z,15.64
2017-09-24T23:08:38.964Z,15.64
2017-09-24T23:11:08.191Z,15.63
2017-09-24T23:13:36.671Z,15.57
2017-09-24T23:16:05.155Z,15.58
2017-09-24T23:18:33.583Z,15.62
2017-09-24T23:21:02.045Z,15.52
2017-09-24T23:23:30.492Z,15.48
2017-09-24T23:25:58.947Z,15.49
2017-09-24T23:28:28.190Z,15.46
2017-09-24T23:30:56.652Z,15.39
2017-09-24T23:33:25.092Z,15.37
2017-09-24T23:35:53.632Z,15.30
2017-09-24T23:38:22.079Z,15.28
2017-09-24T23:40:51.287Z,15.27
2017-09-24T23:43:20.512Z,15.23
2017-09-24T23:45:49.003Z,15.20
2017-09-24T23:48:17.475Z,15.21
2017-09-24T23:50:45.912Z,15.22
2017-09-24T23:53:14.372Z,15.19
2017-09-24T23:55:42.802Z,15.23
2017-09-24T23:58:11.310Z,15.17
